bauwetter24.de Dienste Wetterlexikon Impressum
 
Ihr Standort: Dienste > www.bauwetter24.de- Messwerte - > aktuelle Messwerte

Für Bauunternehmen sind historische Wetterdaten für die tägliche Arbeit wichtig, aber auch rückwirkend für den Nachweis ungünstiger Wetterbedingungen.

In Deutschland existiert ein dichtes Netz von Wetterstationen, an denen vielfältige Wetterbeobachtungen durchgeführt werden. Sie erhalten eine Übersicht über die stündlichen Messwerte der letzten 24 Stunden von vier Wetterstationen in der Umgebung der Baustelle.

Beispiel für die Plz 12347:

 Ihre Auswahl
Stationsauswahl:
Plz - Eingabe:

 

Messwerte von Donnerstag, dem 07.08.2003 16:15 Uhr
bezogen auf die Wetterstation Berlin/Tegel (37 m über NN)
Datum / Zeit Temp 2m rel.
Feuchte
Bewölkung Nsl.-
Menge
Wind-
richtung
max
Windböe
  °C %   l/qm   km/h
07.08.2003 16:00 28.7 26 05 0.0 O 18
07.08.2003 15:00 27.2 28 03 0.0 N 18
07.08.2003 14:00 27.6 29 01 0.0 WNW 18
07.08.2003 13:00 26.5 32 01 0.0 ONO 22
07.08.2003 12:00 25.3 37 01 0.0 O 14
07.08.2003 11:00 24.2 44 01 0.0 O 18
07.08.2003 10:00 22.5 52 01 0.0 S 14
07.08.2003 09:00 20.5 60 01 0.0 O 18
07.08.2003 08:00 18.9 62 01 0.0 O 14
07.08.2003 07:00 17.1 71 01 0.0 ONO 14
07.08.2003 06:00 16.5 73 01 0.0 ONO 14
07.08.2003 05:00 16.7 71 01 0.0 ONO 14
07.08.2003 04:00 17.0 72 00 0.0 O 14
07.08.2003 03:00 17.8 71 00 0.0 ONO 18
07.08.2003 02:00 18.2 71 00 0.0 O 22
07.08.2003 01:00 19.3 68 00 0.0 ONO 22
07.08.2003 00:00 19.7 62 00 0.0 ONO 22
06.08.2003 23:00 20.4 52 00 0.0 ONO 22
06.08.2003 22:00 22.8 43 01 0.0 ONO 11
06.08.2003 21:00 23.3 41 01 0.0 O 22
06.08.2003 20:00 25.6 37 00 0.0 O 22
06.08.2003 19:00 27.4 34 00 0.0 ONO 18
06.08.2003 18:00 28.1 30 01 0.0 O 31
06.08.2003 17:00 28.2 27 00 0.0 NNW 22
06.08.2003 16:00 27.7 26 00 0.0 N 22